createdAt,value
2017-08-11T00:00:08.564Z,97.53
2017-08-11T00:02:36.712Z,95.17
2017-08-11T00:05:04.232Z,93.40
2017-08-11T00:07:31.763Z,90.13
2017-08-11T00:09:59.280Z,90.70
2017-08-11T00:12:26.810Z,93.50
2017-08-11T00:14:54.335Z,92.97
2017-08-11T00:17:21.861Z,90.37
2017-08-11T00:19:49.397Z,96.67
2017-08-11T00:22:16.910Z,99.70
2017-08-11T00:24:44.422Z,94.30
2017-08-11T00:27:12.076Z,94.53
2017-08-11T00:29:39.596Z,98.83
2017-08-11T00:32:07.111Z,97.17
2017-08-11T00:34:34.674Z,101.17
2017-08-11T00:37:02.200Z,94.40
2017-08-11T00:39:29.726Z,93.87
2017-08-11T00:41:57.246Z,97.90
2017-08-11T00:44:24.753Z,92.17
2017-08-11T00:46:53.025Z,96.10
2017-08-11T00:49:20.560Z,90.93
2017-08-11T00:51:48.079Z,89.87
2017-08-11T00:54:15.588Z,89.47
2017-08-11T00:56:43.125Z,88.70
2017-08-11T00:59:10.639Z,87.77
2017-08-11T01:01:38.176Z,93.07
2017-08-11T01:04:05.692Z,90.90
2017-08-11T01:06:33.216Z,93.57
2017-08-11T01:09:00.758Z,93.90
2017-08-11T01:11:28.305Z,95.17
2017-08-11T01:13:55.808Z,97.00
2017-08-11T01:16:23.318Z,93.37
2017-08-11T01:18:50.852Z,95.10
2017-08-11T01:21:18.383Z,93.97
2017-08-11T01:23:46.581Z,87.23
2017-08-11T01:26:14.124Z,84.93
2017-08-11T01:28:41.637Z,82.57
2017-08-11T01:31:09.159Z,80.67
2017-08-11T01:33:36.814Z,84.67
2017-08-11T01:36:04.358Z,78.80
2017-08-11T01:38:32.037Z,80.67
2017-08-11T01:40:59.561Z,87.97
2017-08-11T01:43:27.847Z,85.30
2017-08-11T01:45:55.377Z,79.07
2017-08-11T01:48:23.715Z,76.00
2017-08-11T01:50:51.241Z,83.27
2017-08-11T01:53:18.777Z,83.57
2017-08-11T01:55:47.419Z,82.70
2017-08-11T01:58:14.947Z,73.70
2017-08-11T02:00:42.449Z,77.80
2017-08-11T02:03:09.973Z,74.17
2017-08-11T02:05:37.482Z,70.63
2017-08-11T02:08:05.005Z,74.30
2017-08-11T02:10:32.773Z,82.53
2017-08-11T02:13:00.329Z,77.47
2017-08-11T02:15:27.858Z,81.27
2017-08-11T02:17:56.148Z,76.27
2017-08-11T02:20:23.667Z,79.53
2017-08-11T02:22:51.187Z,79.87
2017-08-11T02:25:18.783Z,80.63
2017-08-11T02:27:46.314Z,75.70
2017-08-11T02:30:13.825Z,77.70
2017-08-11T02:32:42.129Z,74.67
2017-08-11T02:35:09.639Z,67.70
2017-08-11T02:37:37.213Z,70.10
2017-08-11T02:40:05.514Z,76.73
2017-08-11T02:42:33.047Z,71.77
2017-08-11T02:45:01.340Z,75.00
2017-08-11T02:47:28.887Z,69.90
2017-08-11T02:49:57.184Z,75.90
2017-08-11T02:52:24.694Z,69.97
2017-08-11T02:54:52.251Z,74.20
2017-08-11T02:57:19.752Z,73.40
2017-08-11T02:59:48.069Z,77.17
2017-08-11T03:02:16.484Z,72.23
2017-08-11T03:04:43.989Z,75.13
2017-08-11T03:07:11.512Z,76.37
2017-08-11T03:09:39.826Z,73.87
2017-08-11T03:12:07.401Z,79.63
2017-08-11T03:14:34.927Z,64.97
2017-08-11T03:17:03.236Z,71.50
2017-08-11T03:19:30.755Z,67.53
2017-08-11T03:22:00.182Z,55.63
2017-08-11T03:24:27.708Z,62.17
2017-08-11T03:26:56.004Z,69.03
2017-08-11T03:29:23.540Z,62.23
2017-08-11T03:31:51.832Z,58.70
2017-08-11T03:34:20.129Z,58.67
2017-08-11T03:36:47.641Z,61.57
2017-08-11T03:39:16.115Z,61.97
2017-08-11T03:41:44.033Z,65.30
2017-08-11T03:44:11.564Z,65.97
2017-08-11T03:46:39.868Z,70.90
2017-08-11T03:49:07.380Z,69.20
2017-08-11T03:51:34.887Z,67.57
2017-08-11T03:54:02.439Z,66.27
2017-08-11T03:56:29.971Z,73.67
2017-08-11T03:58:57.488Z,61.23
2017-08-11T04:01:25.028Z,60.90
2017-08-11T04:03:52.541Z,58.93
2017-08-11T04:06:20.062Z,59.53
2017-08-11T04:08:47.624Z,63.13
2017-08-11T04:11:15.145Z,63.33
2017-08-11T04:13:43.537Z,64.17
2017-08-11T04:16:11.080Z,62.80
2017-08-11T04:18:39.374Z,70.27
2017-08-11T04:21:06.893Z,65.00
2017-08-11T04:23:34.424Z,60.40
2017-08-11T04:26:01.931Z,62.37
2017-08-11T04:28:30.212Z,60.83
2017-08-11T04:30:58.527Z,65.93
2017-08-11T04:33:26.050Z,68.77
2017-08-11T04:35:54.351Z,69.23
2017-08-11T04:38:21.897Z,68.17
2017-08-11T04:40:49.404Z,71.60
2017-08-11T04:43:16.929Z,65.30
2017-08-11T04:45:44.458Z,65.43
2017-08-11T04:48:12.751Z,71.30
2017-08-11T04:50:40.279Z,72.10
2017-08-11T04:53:07.817Z,67.00
2017-08-11T04:55:35.327Z,69.20
2017-08-11T04:58:02.829Z,70.67
2017-08-11T05:00:30.474Z,73.00
2017-08-11T05:02:57.984Z,66.93
2017-08-11T05:05:26.279Z,72.50
2017-08-11T05:07:53.845Z,73.67
2017-08-11T05:10:21.378Z,67.60
2017-08-11T05:12:49.911Z,58.80
2017-08-11T05:15:17.437Z,68.27
2017-08-11T05:17:44.941Z,60.47
2017-08-11T05:20:12.555Z,64.30
2017-08-11T05:22:41.072Z,66.70
2017-08-11T05:25:08.607Z,63.80
2017-08-11T05:27:36.126Z,62.20
2017-08-11T05:30:03.652Z,64.10
2017-08-11T05:32:31.181Z,62.80
2017-08-11T05:34:58.698Z,62.67
2017-08-11T05:37:26.233Z,58.23
2017-08-11T05:39:55.492Z,61.37
2017-08-11T05:42:23.766Z,53.20
2017-08-11T05:44:52.264Z,60.63
2017-08-11T05:47:19.786Z,56.97
2017-08-11T05:49:47.315Z,61.20
2017-08-11T05:52:17.159Z,55.40
2017-08-11T05:54:50.397Z,51.63
2017-08-11T05:57:23.195Z,53.87
2017-08-11T05:59:53.284Z,54.73
2017-08-11T06:02:22.008Z,52.17
2017-08-11T06:04:52.079Z,48.53
2017-08-11T06:07:22.821Z,55.57
2017-08-11T06:09:55.509Z,50.33
2017-08-11T06:12:25.612Z,54.40
2017-08-11T06:15:00.748Z,60.37
2017-08-11T06:17:29.063Z,58.57
2017-08-11T06:19:56.600Z,50.50
2017-08-11T06:22:24.110Z,57.67
2017-08-11T06:24:51.689Z,56.93
2017-08-11T06:27:19.979Z,52.43
2017-08-11T06:29:48.270Z,55.20
2017-08-11T06:32:15.851Z,55.43
2017-08-11T06:34:43.363Z,52.80
2017-08-11T06:37:11.632Z,56.67
2017-08-11T06:39:39.180Z,58.60
2017-08-11T06:42:06.691Z,50.23
2017-08-11T06:44:34.237Z,52.07
2017-08-11T06:47:03.119Z,50.47
2017-08-11T06:49:31.407Z,51.43
2017-08-11T06:51:59.864Z,53.10
2017-08-11T06:54:29.159Z,51.50
2017-08-11T06:56:56.665Z,50.67
2017-08-11T06:59:24.177Z,50.83
2017-08-11T07:01:52.515Z,49.10
2017-08-11T07:04:20.050Z,53.17
2017-08-11T07:06:47.552Z,56.97
2017-08-11T07:09:15.091Z,55.63
2017-08-11T07:11:42.595Z,53.80
2017-08-11T07:14:10.948Z,52.50
2017-08-11T07:16:38.499Z,52.13
2017-08-11T07:19:06.040Z,54.07
2017-08-11T07:21:33.558Z,51.17
2017-08-11T07:24:02.120Z,51.87
2017-08-11T07:26:29.621Z,56.43
2017-08-11T07:28:57.112Z,51.57
2017-08-11T07:31:24.655Z,53.33
2017-08-11T07:33:52.200Z,52.53
2017-08-11T07:36:20.988Z,59.03
2017-08-11T07:38:48.518Z,58.80
2017-08-11T07:41:16.833Z,61.00
2017-08-11T07:43:44.405Z,59.17
2017-08-11T07:46:11.905Z,50.90
2017-08-11T07:48:39.438Z,54.10
2017-08-11T07:51:06.944Z,55.10
2017-08-11T07:53:35.217Z,55.33
2017-08-11T07:56:03.497Z,56.30
2017-08-11T07:58:31.761Z,54.87
2017-08-11T08:00:59.283Z,50.10
2017-08-11T08:03:26.812Z,52.67
2017-08-11T08:05:55.055Z,59.20
2017-08-11T08:08:22.656Z,57.77
2017-08-11T08:10:51.637Z,52.57
2017-08-11T08:13:19.154Z,47.20
2017-08-11T08:15:46.678Z,46.93
2017-08-11T08:18:14.224Z,46.30
2017-08-11T08:20:41.756Z,38.37
2017-08-11T08:23:10.042Z,37.97
2017-08-11T08:25:38.333Z,33.03
2017-08-11T08:28:05.856Z,35.17
2017-08-11T08:30:33.470Z,31.47
2017-08-11T08:33:01.542Z,34.60
2017-08-11T08:35:29.059Z,36.30
2017-08-11T08:37:57.343Z,29.47
2017-08-11T08:40:25.642Z,27.73
2017-08-11T08:42:53.145Z,28.33
2017-08-11T08:45:20.662Z,28.80
2017-08-11T08:47:48.215Z,26.70
2017-08-11T08:50:15.721Z,25.23
2017-08-11T08:52:43.228Z,24.83
2017-08-11T08:55:10.748Z,21.23
2017-08-11T08:57:38.261Z,22.97
2017-08-11T09:00:05.794Z,23.23
2017-08-11T09:02:34.085Z,23.67
2017-08-11T09:05:01.588Z,25.33
2017-08-11T09:07:29.108Z,27.03
2017-08-11T09:09:56.641Z,24.40
2017-08-11T09:12:24.920Z,22.80
2017-08-11T09:14:53.196Z,27.00
2017-08-11T09:17:21.484Z,24.80
2017-08-11T09:19:49.003Z,20.67
2017-08-11T09:22:16.505Z,18.10
2017-08-11T09:24:55.810Z,18.60
2017-08-11T09:27:35.157Z,12.53
2017-08-11T09:30:24.916Z,16.27
2017-08-11T09:33:04.842Z,16.77
2017-08-11T09:35:44.285Z,16.40
2017-08-11T09:38:11.788Z,14.40
2017-08-11T09:40:40.076Z,15.10
2017-08-11T09:43:07.632Z,15.30
2017-08-11T09:45:35.157Z,18.70
2017-08-11T09:48:02.679Z,14.50
2017-08-11T09:50:30.226Z,12.10
2017-08-11T09:52:57.742Z,10.83
2017-08-11T09:55:25.253Z,11.10
2017-08-11T09:57:52.998Z,13.30
2017-08-11T10:00:20.563Z,10.90
2017-08-11T10:02:48.084Z,13.63
2017-08-11T10:05:15.644Z,12.63
2017-08-11T10:07:43.159Z,12.20
2017-08-11T10:10:10.683Z,12.03
2017-08-11T10:12:38.974Z,11.27
2017-08-11T10:15:06.484Z,14.10
2017-08-11T10:17:33.985Z,13.97
2017-08-11T10:20:01.514Z,12.43
2017-08-11T10:22:29.008Z,11.17
2017-08-11T10:24:56.559Z,10.27
2017-08-11T10:27:24.088Z,8.83
2017-08-11T10:29:51.604Z,9.20
2017-08-11T10:32:19.105Z,9.90
2017-08-11T10:34:46.704Z,9.37
2017-08-11T10:37:14.196Z,9.23
2017-08-11T10:39:41.699Z,10.20
2017-08-11T10:42:09.233Z,9.13
2017-08-11T10:44:36.728Z,9.10
2017-08-11T10:47:04.998Z,9.10
2017-08-11T10:49:32.534Z,8.70
2017-08-11T10:52:00.037Z,8.17
2017-08-11T10:54:27.532Z,8.70
2017-08-11T10:56:55.045Z,7.97
2017-08-11T10:59:22.552Z,8.80
2017-08-11T11:01:50.053Z,8.40
2017-08-11T11:04:17.581Z,9.47
2017-08-11T11:06:45.083Z,8.83
2017-08-11T11:09:12.572Z,6.97
2017-08-11T11:11:40.107Z,8.10
2017-08-11T11:14:07.623Z,9.37
2017-08-11T11:16:35.112Z,10.13
2017-08-11T11:19:02.662Z,10.67
2017-08-11T11:21:30.939Z,9.97
2017-08-11T11:23:59.208Z,11.17
2017-08-11T11:26:27.508Z,11.60
2017-08-11T11:28:55.019Z,11.47
2017-08-11T11:31:22.542Z,10.77
2017-08-11T11:33:50.073Z,11.57
2017-08-11T11:36:18.336Z,10.50
2017-08-11T11:38:46.616Z,8.07
2017-08-11T11:41:14.913Z,7.50
2017-08-11T11:43:42.423Z,8.43
2017-08-11T11:46:09.959Z,8.33
2017-08-11T11:48:37.508Z,8.33
2017-08-11T11:51:05.019Z,7.93
2017-08-11T11:53:32.505Z,7.50
2017-08-11T11:56:00.048Z,8.50
2017-08-11T11:58:28.335Z,8.67
2017-08-11T12:00:55.836Z,8.60
2017-08-11T12:03:23.367Z,8.07
2017-08-11T12:05:50.875Z,7.50
2017-08-11T12:08:18.392Z,7.60
2017-08-11T12:10:45.928Z,7.83
2017-08-11T12:13:13.484Z,7.43
2017-08-11T12:15:40.999Z,7.00
2017-08-11T12:18:08.533Z,5.93
2017-08-11T12:20:36.035Z,5.67
2017-08-11T12:23:03.547Z,5.57
2017-08-11T12:25:31.079Z,5.67
2017-08-11T12:27:59.384Z,4.50
2017-08-11T12:30:26.888Z,4.77
2017-08-11T12:32:54.420Z,5.23
2017-08-11T12:35:21.922Z,5.17
2017-08-11T12:37:50.184Z,4.60
2017-08-11T12:40:17.735Z,5.07
2017-08-11T12:42:45.242Z,5.27
2017-08-11T12:45:12.742Z,4.70
2017-08-11T12:47:40.275Z,5.07
2017-08-11T12:50:07.772Z,4.80
2017-08-11T12:52:35.257Z,6.10
2017-08-11T12:55:03.584Z,6.63
2017-08-11T12:57:31.092Z,5.80
2017-08-11T12:59:58.719Z,5.93
2017-08-11T13:02:26.252Z,6.50
2017-08-11T13:04:53.808Z,8.23
2017-08-11T13:07:21.318Z,6.70
2017-08-11T13:09:49.612Z,5.57
2017-08-11T13:12:17.125Z,19.43
2017-08-11T13:14:44.643Z,5.03
2017-08-11T13:17:12.252Z,5.10
2017-08-11T13:19:39.741Z,4.33
2017-08-11T13:22:08.036Z,4.50
2017-08-11T13:24:35.573Z,4.80
2017-08-11T13:27:03.833Z,4.77
2017-08-11T13:29:31.328Z,4.10
2017-08-11T13:31:58.859Z,3.60
2017-08-11T13:34:26.357Z,4.90
2017-08-11T13:36:53.845Z,3.97
2017-08-11T13:39:21.391Z,4.70
2017-08-11T13:41:48.925Z,4.77
2017-08-11T13:44:16.449Z,5.33
2017-08-11T13:46:43.973Z,5.60
2017-08-11T13:49:11.460Z,4.77
2017-08-11T13:51:38.963Z,4.43
2017-08-11T13:54:06.488Z,4.37
2017-08-11T13:56:33.977Z,4.67
2017-08-11T13:59:01.479Z,4.40
2017-08-11T14:01:29.024Z,4.27
2017-08-11T14:03:56.541Z,4.33
2017-08-11T14:06:24.812Z,4.57
2017-08-11T14:08:53.135Z,4.30
2017-08-11T14:11:20.648Z,4.33
2017-08-11T14:13:48.951Z,3.90
2017-08-11T14:16:16.464Z,8.90
2017-08-11T14:18:43.979Z,3.93
2017-08-11T14:21:11.476Z,3.50
2017-08-11T14:23:44.640Z,3.77
2017-08-11T14:26:12.128Z,3.67
2017-08-11T14:28:39.621Z,3.83
2017-08-11T14:31:07.173Z,4.30
2017-08-11T14:33:35.455Z,3.40
2017-08-11T14:36:02.958Z,3.80
2017-08-11T14:38:30.507Z,4.90
2017-08-11T14:40:58.020Z,4.10
2017-08-11T14:43:26.301Z,4.20
2017-08-11T14:45:54.612Z,4.80
2017-08-11T14:48:22.121Z,4.90
2017-08-11T14:50:49.639Z,4.23
2017-08-11T14:53:17.171Z,3.63
2017-08-11T14:55:44.692Z,4.63
2017-08-11T14:58:12.181Z,4.03
2017-08-11T15:00:39.711Z,5.13
2017-08-11T15:03:07.205Z,3.93
2017-08-11T15:05:34.719Z,4.30
2017-08-11T15:08:02.250Z,3.33
2017-08-11T15:10:29.752Z,4.57
2017-08-11T15:12:57.237Z,4.40
2017-08-11T15:15:24.759Z,11.80
2017-08-11T15:17:52.252Z,4.43
2017-08-11T15:20:19.744Z,4.00
2017-08-11T15:22:47.295Z,5.60
2017-08-11T15:25:14.788Z,4.50
2017-08-11T15:27:42.286Z,4.30
2017-08-11T15:30:09.797Z,3.30
2017-08-11T15:32:37.323Z,4.67
2017-08-11T15:35:04.834Z,3.90
2017-08-11T15:37:32.343Z,5.80
2017-08-11T15:39:59.851Z,3.73
2017-08-11T15:42:27.372Z,3.33
2017-08-11T15:44:54.894Z,3.57
2017-08-11T15:47:22.380Z,3.33
2017-08-11T15:49:49.897Z,2.40
2017-08-11T15:52:18.182Z,4.40
2017-08-11T15:54:46.456Z,2.90
2017-08-11T15:57:14.927Z,2.90
2017-08-11T15:59:43.200Z,2.70
2017-08-11T16:02:10.707Z,2.60
2017-08-11T16:04:38.268Z,3.63
2017-08-11T16:07:05.784Z,3.97
2017-08-11T16:09:34.082Z,2.80
2017-08-11T16:12:01.638Z,3.40
2017-08-11T16:14:29.130Z,3.80
2017-08-11T16:16:56.650Z,3.30
2017-08-11T16:19:24.181Z,3.47
2017-08-11T16:21:51.682Z,3.60
2017-08-11T16:24:19.213Z,3.70
2017-08-11T16:26:47.484Z,4.07
2017-08-11T16:29:15.772Z,3.80
2017-08-11T16:31:44.110Z,3.70
2017-08-11T16:34:11.633Z,3.40
2017-08-11T16:36:39.135Z,3.20
2017-08-11T16:39:08.301Z,3.33
2017-08-11T16:41:35.808Z,4.70
2017-08-11T16:44:04.124Z,3.10
2017-08-11T16:46:31.625Z,3.60
2017-08-11T16:49:03.248Z,3.00
2017-08-11T16:51:30.992Z,4.17
2017-08-11T16:53:59.485Z,3.93
2017-08-11T16:56:27.325Z,3.97
2017-08-11T16:58:55.404Z,3.73
2017-08-11T17:01:22.925Z,3.57
2017-08-11T17:03:50.883Z,4.50
2017-08-11T17:06:18.418Z,3.60
2017-08-11T17:08:45.944Z,3.67
2017-08-11T17:11:13.452Z,3.00
2017-08-11T17:13:40.978Z,2.50
2017-08-11T17:16:08.465Z,2.80
2017-08-11T17:18:35.975Z,2.40
2017-08-11T17:21:07.508Z,2.40
2017-08-11T17:23:35.113Z,2.03
2017-08-11T17:26:02.636Z,2.20
2017-08-11T17:28:30.214Z,2.00
2017-08-11T17:30:58.547Z,1.87
2017-08-11T17:33:26.044Z,2.90
2017-08-11T17:35:54.322Z,1.93
2017-08-11T17:38:22.742Z,1.70
2017-08-11T17:40:50.242Z,2.00
2017-08-11T17:43:17.753Z,15.23
2017-08-11T17:45:45.298Z,2.00
2017-08-11T17:48:12.819Z,2.00
2017-08-11T17:50:40.347Z,1.67
2017-08-11T17:53:07.870Z,1.70
2017-08-11T17:55:35.373Z,4.03
2017-08-11T17:58:02.888Z,3.90
2017-08-11T18:00:30.416Z,1.60
2017-08-11T18:02:57.926Z,4.83
2017-08-11T18:05:25.421Z,4.00
2017-08-11T18:07:52.960Z,1.70
2017-08-11T18:10:20.474Z,2.10
2017-08-11T18:12:48.744Z,5.73
2017-08-11T18:15:17.029Z,2.40
2017-08-11T18:17:44.556Z,1.63
2017-08-11T18:20:12.057Z,1.80
2017-08-11T18:22:39.545Z,1.90
2017-08-11T18:25:07.202Z,1.60
2017-08-11T18:27:34.703Z,2.20
2017-08-11T18:30:02.201Z,1.73
2017-08-11T18:32:29.717Z,4.37
2017-08-11T18:34:57.241Z,3.63
2017-08-11T18:37:24.727Z,3.30
2017-08-11T18:39:52.252Z,2.47
2017-08-11T18:42:19.810Z,11.43
2017-08-11T18:44:47.319Z,3.80
2017-08-11T18:47:15.591Z,4.70
2017-08-11T18:49:44.166Z,11.53
2017-08-11T18:52:11.691Z,2.60
2017-08-11T18:54:39.224Z,15.33
2017-08-11T18:57:06.745Z,4.57
2017-08-11T18:59:34.279Z,10.43
2017-08-11T19:02:01.790Z,4.63
2017-08-11T19:04:30.064Z,9.43
2017-08-11T19:06:58.468Z,2.63
2017-08-11T19:09:26.076Z,2.17
2017-08-11T19:11:53.596Z,2.73
2017-08-11T19:14:21.128Z,3.63
2017-08-11T19:16:48.667Z,3.27
2017-08-11T19:19:16.945Z,2.87
2017-08-11T19:21:45.213Z,2.77
2017-08-11T19:24:12.773Z,2.70
2017-08-11T19:26:40.274Z,11.20
2017-08-11T19:29:07.791Z,3.00
2017-08-11T19:31:35.351Z,2.53
2017-08-11T19:34:02.876Z,2.13
2017-08-11T19:36:30.404Z,2.63
2017-08-11T19:38:57.948Z,2.60
2017-08-11T19:41:26.334Z,2.50
2017-08-11T19:43:53.832Z,2.43
2017-08-11T19:46:21.360Z,2.20
2017-08-11T19:48:48.882Z,2.70
2017-08-11T19:51:16.393Z,2.20
2017-08-11T19:53:43.918Z,3.17
2017-08-11T19:56:12.233Z,4.10
2017-08-11T19:58:39.752Z,4.23
2017-08-11T20:01:08.034Z,3.83
2017-08-11T20:03:36.320Z,5.00
2017-08-11T20:06:03.877Z,4.20
2017-08-11T20:08:31.462Z,5.17
2017-08-11T20:10:58.982Z,4.60
2017-08-11T20:13:27.271Z,5.13
2017-08-11T20:15:54.799Z,5.00
2017-08-11T20:18:22.314Z,5.20
2017-08-11T20:20:49.847Z,5.60
2017-08-11T20:23:17.381Z,4.50
2017-08-11T20:25:44.876Z,5.47
2017-08-11T20:28:12.396Z,4.70
2017-08-11T20:30:39.926Z,4.80
2017-08-11T20:33:07.445Z,4.50
2017-08-11T20:35:34.969Z,4.37
2017-08-11T20:38:02.521Z,5.03
2017-08-11T20:40:30.032Z,4.40
2017-08-11T20:42:57.550Z,4.20
2017-08-11T20:45:25.092Z,4.40
2017-08-11T20:47:52.619Z,4.20
2017-08-11T20:50:20.158Z,5.40
2017-08-11T20:52:47.653Z,5.20
2017-08-11T20:55:15.162Z,6.03
2017-08-11T20:57:43.441Z,4.90
2017-08-11T21:00:12.046Z,5.00
2017-08-11T21:02:39.567Z,5.40
2017-08-11T21:05:07.112Z,5.20
2017-08-11T21:07:34.640Z,4.40
2017-08-11T21:10:02.160Z,4.67
2017-08-11T21:12:30.460Z,4.87
2017-08-11T21:14:58.109Z,4.10
2017-08-11T21:17:25.611Z,3.97
2017-08-11T21:19:53.124Z,3.00
2017-08-11T21:22:21.393Z,4.10
2017-08-11T21:24:49.693Z,3.10
2017-08-11T21:27:17.187Z,3.60
2017-08-11T21:29:44.690Z,3.27
2017-08-11T21:32:12.982Z,3.30
2017-08-11T21:34:40.532Z,3.00
2017-08-11T21:37:08.073Z,3.70
2017-08-11T21:39:35.565Z,3.20
2017-08-11T21:42:03.089Z,3.17
2017-08-11T21:44:30.623Z,3.03
2017-08-11T21:46:58.157Z,3.17
2017-08-11T21:49:25.668Z,3.40
2017-08-11T21:51:53.960Z,3.40
2017-08-11T21:54:22.266Z,3.03
2017-08-11T21:56:49.775Z,3.50
2017-08-11T21:59:17.364Z,4.00
2017-08-11T22:01:44.884Z,2.93
2017-08-11T22:04:12.381Z,3.33
2017-08-11T22:06:39.936Z,3.07
2017-08-11T22:09:07.489Z,3.33
2017-08-11T22:11:35.000Z,3.93
2017-08-11T22:14:02.566Z,2.73
2017-08-11T22:16:30.070Z,3.60
2017-08-11T22:18:58.354Z,4.00
2017-08-11T22:21:25.863Z,3.70
2017-08-11T22:23:53.356Z,4.27
2017-08-11T22:26:21.685Z,3.30
2017-08-11T22:28:49.203Z,5.70
2017-08-11T22:31:16.719Z,3.30
2017-08-11T22:33:44.234Z,4.00
2017-08-11T22:36:11.754Z,3.90
2017-08-11T22:38:39.273Z,4.20
2017-08-11T22:41:06.798Z,3.50
2017-08-11T22:43:34.306Z,4.27
2017-08-11T22:46:01.815Z,3.83
2017-08-11T22:48:29.343Z,3.77
2017-08-11T22:50:56.960Z,4.60
2017-08-11T22:53:24.463Z,5.07
2017-08-11T22:55:52.201Z,5.43
2017-08-11T22:58:19.701Z,5.87
2017-08-11T23:00:47.984Z,6.13
2017-08-11T23:03:16.289Z,5.20
2017-08-11T23:05:43.807Z,4.70
2017-08-11T23:08:12.095Z,5.40
2017-08-11T23:10:40.846Z,4.80
2017-08-11T23:13:08.527Z,4.93
2017-08-11T23:15:37.779Z,5.13
2017-08-11T23:18:05.330Z,5.17
2017-08-11T23:20:32.856Z,4.17
2017-08-11T23:23:01.167Z,4.53
2017-08-11T23:25:28.711Z,3.60
2017-08-11T23:27:56.242Z,4.60
2017-08-11T23:30:24.552Z,4.27
2017-08-11T23:32:52.045Z,4.70
2017-08-11T23:35:19.568Z,3.97
2017-08-11T23:37:47.100Z,4.67
2017-08-11T23:40:14.612Z,4.77
2017-08-11T23:42:42.133Z,4.77
2017-08-11T23:45:10.421Z,4.40
2017-08-11T23:47:37.924Z,5.03
2017-08-11T23:50:05.445Z,4.53
2017-08-11T23:52:32.960Z,5.00
2017-08-11T23:55:00.464Z,4.83
2017-08-11T23:57:28.007Z,4.03
2017-08-11T23:59:55.530Z,5.20
